Time;durP1;ratioP1;P1;durP2;ratioP2;P2;SDS_P1;SDS_P2;PMS_P1;PMS_P2;Temp;Humidity;BMP_temperature;BMP_pressure;BME280_temperature;BME280_humidity;BME280_pressure;Samples;Min_cycle;Max_cycle;Signal;HPM_P1;HPM_P2
2024/04/03 00:02:15;;;;;;;3.50;0.60;;;;;;;8.81;71.50;99326.77;121493;1301;5409553;-64
2024/04/03 00:10:50;;;;;;;1.00;0.40;;;;;;;8.94;71.36;99324.59;125396;1312;637144;-64
2024/04/03 00:14:52;;;;;;;1.80;0.40;;;;;;;9.02;71.42;99321.98;126714;1298;128665;-64
2024/04/03 00:18:47;;;;;;;3.20;0.50;;;;;;;9.10;71.70;99321.69;125923;1300;115096;-64
2024/04/03 00:31:23;;;;;;;1.50;0.60;;;;;;;9.36;71.39;99312.66;125907;1301;638690;-65
2024/04/03 00:35:26;;;;;;;1.20;0.60;;;;;;;9.42;71.46;99316.93;128657;1295;128816;-65
2024/04/03 00:39:28;;;;;;;1.90;0.70;;;;;;;9.47;71.28;99315.92;127618;1284;114837;-66
2024/04/03 00:43:32;;;;;;;2.00;0.60;;;;;;;9.51;70.99;99320.48;122607;1293;5496437;-66
2024/04/03 00:51:33;;;;;;;;;;;;;;;;;;;;;
2024/04/03 00:55:59;;;;;;;2.30;0.80;;;;;;;9.56;70.83;99312.33;126499;1295;636075;-65
2024/04/03 01:00:02;;;;;;;0.70;0.30;;;;;;;9.52;70.95;99308.09;128388;1279;129363;-65
2024/04/03 01:03:51;;;;;;;1.10;0.60;;;;;;;9.53;71.02;99304.31;127643;1300;115293;-65
2024/04/03 01:07:58;;;;;;;;;;;;;;;;;;;;;
2024/04/03 01:12:15;;;;;;;4.20;1.00;;;;;;;9.50;71.00;99303.11;126459;1296;115036;-65
2024/04/03 01:16:17;;;;;;;1.80;0.40;;;;;;;9.48;71.04;99304.96;125671;1302;115030;-66
2024/04/03 01:20:18;;;;;;;1.00;0.40;;;;;;;9.45;70.86;99304.11;125602;1320;114910;-65
2024/04/03 01:23:59;;;;;;;1.60;0.70;;;;;;;9.41;71.00;99296.86;125105;1325;129867;-65
2024/04/03 01:28:00;;;;;;;2.70;0.90;;;;;;;9.35;70.99;99295.63;125284;1322;115090;-63
2024/04/03 01:32:02;;;;;;;1.90;0.90;;;;;;;9.28;71.43;99289.97;124175;1333;114981;-65
2024/04/03 01:35:53;;;;;;;2.50;0.60;;;;;;;9.26;71.30;99286.13;124133;1316;115026;-65
2024/04/03 02:00:43;;;;;;;1.90;0.70;;;;;;;9.33;71.61;99285.94;126349;1293;114961;-65
2024/04/03 02:04:44;;;;;;;2.90;0.60;;;;;;;9.32;71.76;99279.60;125729;1300;114814;-63
2024/04/03 02:08:46;;;;;;;1.60;0.40;;;;;;;9.28;71.66;99277.87;124862;1325;129744;-64
2024/04/03 02:17:24;;;;;;;;;;;;;;;;;;;;;
2024/04/03 02:21:15;;;;;;;1.70;0.50;;;;;;;9.07;71.91;99275.55;127701;1301;127929;-65
2024/04/03 02:29:21;;;;;;;2.90;0.80;;;;;;;8.99;71.91;99268.20;121773;1306;5422700;-64
2024/04/03 02:33:22;;;;;;;3.50;1.30;;;;;;;8.93;72.02;99267.48;124285;1330;114880;-64
2024/04/03 02:41:51;;;;;;;2.80;0.70;;;;;;;8.85;71.87;99271.69;126044;1298;638562;-65
2024/04/03 02:45:53;;;;;;;3.80;0.70;;;;;;;8.75;72.24;99268.71;127532;1286;128771;-65
2024/04/03 02:49:57;;;;;;;2.70;0.70;;;;;;;8.67;71.87;99267.04;126747;1287;114954;-65
2024/04/03 02:53:58;;;;;;;4.30;0.70;;;;;;;8.59;72.40;99263.41;121979;1302;5420810;-65
2024/04/03 03:02:33;;;;;;;2.90;0.80;;;;;;;8.46;72.38;99262.54;125774;1311;637651;-64
2024/04/03 03:06:35;;;;;;;2.50;0.80;;;;;;;8.37;72.72;99263.91;127308;1303;128537;-64
2024/04/03 03:10:29;;;;;;;;;;;;;;;;;;;;;
2024/04/03 03:14:31;;;;;;;2.20;1.10;;;;;;;8.24;73.08;99260.39;122209;1315;5532518;-64
2024/04/03 03:18:57;;;;;;;3.40;1.50;;;;;;;8.18;72.85;99252.73;124608;1308;115010;-64
2024/04/03 03:30:45;;;;;;;3.40;0.80;;;;;;;8.02;73.45;99240.42;128282;1281;129394;-64
2024/04/03 03:34:48;;;;;;;2.60;0.80;;;;;;;7.97;73.39;99242.13;127699;1283;114951;-65
2024/04/03 03:38:49;;;;;;;2.60;1.00;;;;;;;7.93;73.57;99245.96;123270;1288;5439090;-65
2024/04/03 03:42:51;;;;;;;2.20;0.90;;;;;;;7.89;73.95;99242.41;125823;1320;114972;-64
2024/04/03 03:59:41;;;;;;;2.90;0.60;;;;;;;7.83;74.28;99251.46;125600;1302;651920;-63
2024/04/03 04:03:44;;;;;;;2.30;0.80;;;;;;;7.86;74.87;99261.73;127630;1282;128855;-65
2024/04/03 04:07:49;;;;;;;1.30;0.70;;;;;;;7.98;74.89;99258.65;127062;1290;114914;-65
2024/04/03 04:11:54;;;;;;;3.50;1.10;;;;;;;8.11;74.81;99260.90;122238;1296;5499882;-64
2024/04/03 04:15:55;;;;;;;2.20;0.60;;;;;;;8.25;74.91;99258.75;125638;1302;114929;-67
2024/04/03 04:28:33;;;;;;;3.20;0.80;;;;;;;8.42;74.29;99264.16;128203;1282;128832;-67
2024/04/03 04:32:35;;;;;;;4.40;1.10;;;;;;;8.43;74.47;99267.33;127527;1286;114977;-68
2024/04/03 04:44:42;;;;;;;2.00;0.80;;;;;;;8.34;74.09;99272.60;125079;1318;114920;-67
2024/04/03 04:53:16;;;;;;;3.10;0.60;;;;;;;8.32;74.25;99274.50;125665;1301;638590;-65
2024/04/03 04:57:20;;;;;;;2.60;0.90;;;;;;;8.33;74.40;99279.47;127722;1278;128909;-64
2024/04/03 05:01:22;;;;;;;2.90;0.80;;;;;;;8.40;74.68;99277.45;127357;1284;115023;-66
2024/04/03 05:05:23;;;;;;;3.10;1.10;;;;;;;8.51;74.78;99276.52;122398;1298;5458076;-67
2024/04/03 05:09:23;;;;;;;;;;;;;;;;;;;;;
2024/04/03 05:22:03;;;;;;;3.70;0.80;;;;;;;8.81;74.10;99272.98;128702;1277;128718;-67
2024/04/03 05:26:05;;;;;;;4.00;0.70;;;;;;;8.89;74.33;99278.20;127745;1279;114873;-68
2024/04/03 05:30:06;;;;;;;2.90;1.00;;;;;;;8.99;74.15;99280.84;123320;1307;5415974;-67
2024/04/03 05:34:07;;;;;;;5.30;1.10;;;;;;;9.13;74.28;99284.80;126174;1300;114939;-68
2024/04/03 05:42:42;;;;;;;3.00;1.00;;;;;;;9.49;73.78;99289.21;125578;1304;637780;-67
2024/04/03 05:46:45;;;;;;;3.80;0.70;;;;;;;9.68;73.39;99292.35;128167;1280;127717;-65
2024/04/03 05:50:55;;;;;;;2.60;0.50;;;;;;;9.87;73.17;99288.33;127112;1308;115418;-68
2024/04/03 05:54:56;;;;;;;2.10;0.80;;;;;;;10.04;72.93;99282.95;122299;1298;5543487;-65
2024/04/03 05:58:57;;;;;;;3.50;0.80;;;;;;;10.19;72.58;99271.30;125482;1304;114968;-64
2024/04/03 06:07:32;;;;;;;4.50;0.90;;;;;;;10.54;71.78;99268.00;125778;1304;637925;-67
2024/04/03 06:11:35;;;;;;;4.90;1.40;;;;;;;10.87;71.81;99259.95;127947;1293;128544;-67
2024/04/03 06:19:40;;;;;;;2.80;0.90;;;;;;;11.80;70.60;99252.94;124063;1312;3191118;-67
2024/04/03 06:23:42;;;;;;;2.10;0.50;;;;;;;12.20;70.18;99255.54;125869;1302;114892;-64
2024/04/03 06:27:43;;;;;;;4.10;1.70;;;;;;;12.61;69.86;99256.77;125340;1321;114914;-67
2024/04/03 06:40:20;;;;;;;2.70;1.10;;;;;;;13.30;67.36;99265.38;127555;1286;126532;-67
2024/04/03 06:44:24;;;;;;;4.60;0.70;;;;;;;13.67;66.86;99267.55;127067;1290;114978;-67
2024/04/03 06:48:26;;;;;;;4.80;0.90;;;;;;;14.01;65.89;99267.52;122557;1296;5513257;-67
2024/04/03 07:01:08;;;;;;;6.50;0.80;;;;;;;14.33;63.84;99256.38;125777;1312;639328;-66
2024/04/03 07:05:10;;;;;;;3.60;1.00;;;;;;;14.57;63.73;99257.77;127928;1302;128795;-66
2024/04/03 07:09:14;;;;;;;2.80;1.00;;;;;;;15.09;63.16;99258.92;127330;1285;114825;-66
2024/04/03 07:13:15;;;;;;;2.00;0.90;;;;;;;15.50;62.61;99252.11;122671;1299;5466277;-68
2024/04/03 07:17:17;;;;;;;3.10;0.80;;;;;;;15.69;61.43;99253.40;125514;1308;115558;-68
2024/04/03 07:21:19;;;;;;;2.90;1.00;;;;;;;15.82;60.96;99258.89;124719;1314;114933;-69
2024/04/03 07:33:58;;;;;;;4.20;1.00;;;;;;;16.69;58.84;99276.56;127479;1284;128003;-68
2024/04/03 07:37:57;;;;;;;3.10;1.00;;;;;;;16.70;58.13;99278.85;126543;1290;114920;-68
2024/04/03 07:50:12;;;;;;;4.10;1.10;;;;;;;16.56;56.51;99289.13;124507;1313;114932;-72
2024/04/03 07:58:48;;;;;;;6.50;0.90;;;;;;;17.12;56.06;99279.36;125584;1301;638695;-65
2024/04/03 08:06:54;;;;;;;1.60;0.60;;;;;;;18.81;54.88;99289.48;127566;1283;115035;-65
2024/04/03 08:10:55;;;;;;;2.40;0.70;;;;;;;19.39;53.76;99286.06;122534;1296;5454252;-65
2024/04/03 08:19:30;;;;;;;3.50;0.70;;;;;;;20.06;51.92;99284.02;125802;1304;638676;-64
2024/04/03 08:27:37;;;;;;;3.30;0.80;;;;;;;20.80;50.36;99285.41;127527;1300;114821;-66
2024/04/03 08:31:41;;;;;;;3.60;1.10;;;;;;;21.25;49.15;99285.34;123332;1288;5391887;-66
2024/04/03 08:43:46;;;;;;;3.80;0.80;;;;;;;19.98;47.21;99306.98;125045;1305;114984;-65
2024/04/03 08:52:20;;;;;;;3.00;0.60;;;;;;;19.31;47.13;99302.98;126067;1301;637392;-63
2024/04/03 08:56:16;;;;;;;2.60;0.80;;;;;;;18.95;46.81;99299.16;128504;1289;128912;-65
2024/04/03 09:00:19;;;;;;;2.70;1.00;;;;;;;18.59;46.73;99308.87;128142;1282;114981;-63
2024/04/03 09:04:22;;;;;;;3.20;0.70;;;;;;;18.48;46.60;99312.27;122672;1303;5622238;-67
2024/04/03 09:08:25;;;;;;;4.70;1.20;;;;;;;18.43;46.19;99313.35;126279;1310;114987;-65
2024/04/03 09:12:27;;;;;;;2.90;1.50;;;;;;;18.17;46.12;99320.02;126416;1307;114981;-65
2024/04/03 09:16:29;;;;;;;2.80;0.90;;;;;;;18.01;46.16;99321.93;125666;1305;128407;-64
2024/04/03 09:25:18;;;;;;;3.10;1.00;;;;;;;17.98;46.15;99331.23;126237;1295;637627;-65
2024/04/03 09:29:02;;;;;;;3.30;1.30;;;;;;;18.14;46.37;99332.22;129268;1270;129007;-67
2024/04/03 09:37:09;;;;;;;4.80;2.20;;;;;;;18.22;46.47;99341.69;127848;1283;438095;-66
2024/04/03 09:45:15;;;;;;;3.10;1.10;;;;;;;18.12;46.18;99351.16;127134;1300;114890;-66
2024/04/03 09:53:17;;;;;;;2.10;0.80;;;;;;;17.99;46.18;99363.69;126556;1295;114850;-64
2024/04/03 09:57:19;;;;;;;2.70;0.60;;;;;;;18.01;46.27;99364.85;125718;1306;115061;-65
2024/04/03 10:01:21;;;;;;;4.00;1.10;;;;;;;17.98;46.00;99363.02;124842;1317;114907;-67
2024/04/03 10:18:05;;;;;;;2.10;0.40;;;;;;;18.09;45.66;99369.32;128420;1281;114965;-65
2024/04/03 10:22:14;;;;;;;2.50;0.70;;;;;;;18.21;45.67;99369.83;123540;1286;5420126;-63
2024/04/03 10:26:12;;;;;;;3.80;0.90;;;;;;;18.47;46.55;99371.17;126321;1298;114951;-63
2024/04/03 10:34:16;;;;;;;2.30;0.80;;;;;;;19.04;45.26;99381.67;125823;1299;114982;-63
2024/04/03 10:38:40;;;;;;;2.20;0.80;;;;;;;18.91;44.53;99388.75;125819;1298;128761;-65
2024/04/03 10:42:22;;;;;;;6.10;1.00;;;;;;;18.68;44.72;99390.95;125810;1301;115060;-64
2024/04/03 10:46:50;;;;;;;3.70;1.30;;;;;;;18.50;45.02;99389.26;125006;1307;114859;-63
2024/04/03 10:55:06;;;;;;;2.60;0.60;;;;;;;18.33;45.19;99387.53;125379;1302;638694;-66
2024/04/03 10:59:09;;;;;;;3.30;0.90;;;;;;;18.22;45.03;99391.84;127719;1296;127569;-63
2024/04/03 11:03:13;;;;;;;4.20;0.70;;;;;;;18.02;45.27;99390.23;127030;1286;114955;-63
2024/04/03 11:07:08;;;;;;;3.80;0.90;;;;;;;17.90;45.48;99393.88;122114;1296;5507348;-63
2024/04/03 11:15:16;;;;;;;2.20;0.60;;;;;;;17.76;45.67;99407.28;125574;1303;115234;-63
2024/04/03 11:18:55;;;;;;;2.80;0.60;;;;;;;17.62;45.69;99414.20;124820;1311;129669;-63
2024/04/03 11:27:25;;;;;;;3.10;0.70;;;;;;;17.35;45.90;99414.32;126104;1295;638774;-63
2024/04/03 11:31:25;;;;;;;;;;;;;;;;;;;;;
2024/04/03 11:35:31;;;;;;;3.10;0.70;;;;;;;17.12;46.62;99418.64;127443;1297;114882;-65
2024/04/03 11:39:31;;;;;;;;;;;;;;;;;;;;;
2024/04/03 11:43:41;;;;;;;2.00;0.80;;;;;;;16.99;46.77;99418.86;126904;1292;114890;-64
2024/04/03 11:47:42;;;;;;;3.10;0.90;;;;;;;17.04;46.85;99417.51;126212;1298;114827;-64
2024/04/03 12:00:04;;;;;;;3.30;0.60;;;;;;;17.73;47.08;99413.74;125960;1298;636220;-65
2024/04/03 12:03:56;;;;;;;2.60;0.60;;;;;;;18.08;46.92;99409.40;128832;1272;128413;-65
2024/04/03 12:07:59;;;;;;;2.60;0.70;;;;;;;18.31;46.72;99410.44;128696;1279;114919;-64
2024/04/03 12:16:03;;;;;;;2.20;0.60;;;;;;;18.71;46.35;99412.22;125941;1317;114901;-63
2024/04/03 12:20:30;;;;;;;3.00;1.10;;;;;;;18.91;46.24;99415.32;125374;1323;115348;-64
2024/04/03 12:24:09;;;;;;;2.90;0.80;;;;;;;19.18;46.24;99415.74;125562;1304;130087;-65
2024/04/03 12:28:11;;;;;;;1.80;0.80;;;;;;;19.37;45.57;99417.86;125029;1311;115007;-65
2024/04/03 12:36:46;;;;;;;1.60;0.80;;;;;;;19.65;45.31;99418.27;126283;1297;639749;-64
2024/04/03 12:40:49;;;;;;;2.00;0.60;;;;;;;19.61;44.83;99424.19;128456;1295;129720;-62
2024/04/03 12:44:51;;;;;;;2.60;0.80;;;;;;;19.47;44.73;99420.09;128419;1280;114902;-66
2024/04/03 12:48:56;;;;;;;2.90;1.00;;;;;;;19.20;44.67;99426.75;123284;1290;5552099;-63
2024/04/03 12:52:56;;;;;;;2.20;0.60;;;;;;;18.95;44.54;99425.23;126006;1317;114971;-64
2024/04/03 12:56:51;;;;;;;2.70;0.80;;;;;;;18.72;44.66;99429.70;125055;1310;115244;-62
2024/04/03 13:05:20;;;;;;;2.70;0.60;;;;;;;18.48;45.11;99430.86;126230;1298;640552;-65
2024/04/03 13:09:22;;;;;;;7.70;3.10;;;;;;;18.44;45.53;99436.73;127582;1287;128417;-64
2024/04/03 13:13:26;;;;;;;2.80;0.90;;;;;;;18.40;45.57;99435.06;126644;1293;114804;-65
2024/04/03 13:17:26;;;;;;;;;;;;;;;;;;;;;
2024/04/03 13:21:26;;;;;;;;;;;;;;;;;;;;;
2024/04/03 13:29:54;;;;;;;15.90;10.10;;;;;;;17.77;46.18;99445.89;126266;1303;635903;-64
2024/04/03 13:33:56;;;;;;;6.60;2.80;;;;;;;17.54;46.63;99450.75;128481;1278;127847;-64
2024/04/03 13:37:59;;;;;;;6.70;1.40;;;;;;;17.38;46.63;99456.33;128190;1292;115031;-64
2024/04/03 13:42:03;;;;;;;1.60;0.60;;;;;;;17.29;46.85;99459.31;124250;1278;5385349;-63
2024/04/03 13:45:48;;;;;;;3.70;0.80;;;;;;;17.27;46.99;99460.73;127628;1294;114900;-64
2024/04/03 13:54:03;;;;;;;4.00;0.90;;;;;;;17.48;47.45;99462.04;126361;1292;636091;-65
2024/04/03 13:58:04;;;;;;;3.40;0.80;;;;;;;17.53;47.55;99460.70;127442;1303;128891;-65
2024/04/03 14:02:06;;;;;;;3.40;0.80;;;;;;;17.59;47.57;99468.26;127355;1281;114883;-66
2024/04/03 14:10:10;;;;;;;2.20;1.00;;;;;;;17.52;47.58;99464.13;125722;1302;114979;-64
2024/04/03 14:14:11;;;;;;;2.20;0.70;;;;;;;17.46;47.73;99471.44;124952;1307;114945;-64
2024/04/03 14:22:38;;;;;;;2.20;0.60;;;;;;;17.46;48.19;99472.73;125924;1311;636173;-66
2024/04/03 14:26:31;;;;;;;2.80;0.90;;;;;;;17.53;48.35;99477.11;128349;1281;127727;-64
2024/04/03 14:30:36;;;;;;;2.70;0.70;;;;;;;17.59;48.35;99477.66;127802;1287;114767;-64
2024/04/03 14:34:30;;;;;;;;;;;;;;;;;;;;;
2024/04/03 14:42:54;;;;;;;2.90;0.80;;;;;;;17.55;48.24;99497.70;125766;1298;635679;-64
2024/04/03 14:46:47;;;;;;;;;;;;;;;;;;;;;
2024/04/03 14:50:12;;;;;;;7.10;2.00;;;;;;;17.16;48.62;99501.45;126193;1316;115066;-64
2024/04/03 14:54:49;;;;;;;2.70;1.00;;;;;;;16.93;48.74;99504.88;126278;1299;114943;-65
2024/04/03 14:58:12;;;;;;;3.20;0.70;;;;;;;16.72;49.08;99507.05;122551;1295;115083;-64
2024/04/03 15:06:07;;;;;;;1.90;0.80;;;;;;;16.44;49.80;99509.30;125526;1308;114891;-65
2024/04/03 15:10:06;;;;;;;;;;;;;;;;;;;;;
2024/04/03 15:18:10;;;;;;;;;;;;;;;;;;;;;
2024/04/03 15:22:14;;;;;;;2.80;0.70;;;;;;;16.47;50.50;99517.89;128386;1275;128946;-67
2024/04/03 15:26:19;;;;;;;2.20;0.80;;;;;;;16.44;50.64;99519.77;127370;1289;114919;-63
2024/04/03 15:30:04;;;;;;;3.90;0.80;;;;;;;16.38;50.76;99520.70;125141;1301;5589183;-65
2024/04/03 15:33:44;;;;;;;2.50;0.80;;;;;;;16.29;50.91;99528.33;125450;1318;114995;-63
2024/04/03 15:37:35;;;;;;;;;;;;;;;;;;;;;
2024/04/03 15:41:25;;;;;;;;;;;;;;;;;;;;;
2024/04/03 15:45:30;;;;;;;1.70;0.60;;;;;;;16.17;51.52;99543.73;124481;1318;115010;-63
2024/04/03 15:49:24;;;;;;;2.40;0.40;;;;;;;16.14;51.66;99545.05;124968;1321;114883;-64
2024/04/03 15:57:04;;;;;;;5.80;2.60;;;;;;;16.02;51.89;99554.70;126425;1302;636407;-65
2024/04/03 16:01:09;;;;;;;3.20;1.10;;;;;;;15.88;52.14;99563.29;128842;1289;128137;-65
2024/04/03 16:05:10;;;;;;;3.30;1.00;;;;;;;15.74;52.57;99562.97;127423;1287;114964;-63
2024/04/03 16:09:38;;;;;;;6.10;2.10;;;;;;;15.62;52.66;99563.56;126266;1298;114888;-63
2024/04/03 16:13:12;;;;;;;;;;;;;;;15.53;53.10;99570.80;122330;1295;114945;-63
2024/04/03 16:17:11;;;;;;;3.70;1.60;;;;;;;15.43;53.14;99572.70;126020;1305;114841;-64
2024/04/03 16:21:11;;;;;;;3.90;2.00;;;;;;;15.30;53.61;99578.92;124716;1328;114982;-64
2024/04/03 16:29:46;;;;;;;5.90;2.30;;;;;;;15.08;54.10;99582.71;125755;1301;638414;-63
2024/04/03 16:45:56;;;;;;;4.40;1.80;;;;;;;14.47;55.66;99596.36;125787;1301;114952;-63
2024/04/03 16:49:56;;;;;;;;;;;;;;;;;;;;;
2024/04/03 16:53:58;;;;;;;1.70;0.70;;;;;;;14.23;56.58;99603.91;124283;1313;116057;-63
2024/04/03 17:02:25;;;;;;;3.40;1.50;;;;;;;14.06;57.40;99612.98;125801;1298;636032;-64
2024/04/03 17:06:30;;;;;;;2.70;1.50;;;;;;;13.95;57.76;99615.91;128077;1282;128184;-65
2024/04/03 17:14:33;;;;;;;3.40;1.50;;;;;;;13.82;58.42;99621.22;121794;1313;5443791;-65
2024/04/03 17:23:02;;;;;;;10.80;4.00;;;;;;;13.70;59.20;99625.10;125719;1302;639338;-63
2024/04/03 17:27:03;;;;;;;;;;;;;;;;;;;;;
2024/04/03 17:31:08;;;;;;;11.40;6.30;;;;;;;13.53;59.50;99635.35;127242;1288;114912;-63
2024/04/03 17:35:04;;;;;;;;;;;;;;;;;;;;;
2024/04/03 17:48:01;;;;;;;6.60;3.00;;;;;;;13.21;60.68;99650.66;125884;1299;652142;-64
2024/04/03 17:51:53;;;;;;;7.00;3.60;;;;;;;13.13;61.11;99659.16;127679;1298;129962;-64
2024/04/03 17:55:56;;;;;;;10.50;5.30;;;;;;;13.05;61.56;99665.75;127392;1300;114948;-63
2024/04/03 18:00:00;;;;;;;10.20;5.80;;;;;;;12.97;61.90;99674.91;122161;1314;5419771;-64
2024/04/03 18:03:41;;;;;;;11.80;5.50;;;;;;;12.91;62.22;99680.02;125466;1301;114949;-63
2024/04/03 18:11:43;;;;;;;7.80;4.20;;;;;;;12.80;62.78;99690.45;124657;1321;114939;-63
2024/04/03 18:19:57;;;;;;;12.00;6.80;;;;;;;12.70;63.52;99695.44;126109;1297;636041;-63
2024/04/03 18:28:02;;;;;;;12.80;5.40;;;;;;;12.58;64.05;99707.14;127072;1289;114950;-62
2024/04/03 18:31:34;;;;;;;;;;;;;;;;;;;;;
2024/04/03 18:35:37;;;;;;;8.00;4.10;;;;;;;12.53;64.22;99717.68;125348;1302;114812;-64
2024/04/03 18:44:14;;;;;;;3.00;2.10;;;;;;;12.51;64.67;99720.50;125332;1303;638890;-64
2024/04/03 18:48:17;;;;;;;4.10;1.60;;;;;;;12.46;65.27;99729.45;126637;1291;127968;-64
2024/04/03 18:52:17;;;;;;;3.10;1.10;;;;;;;12.42;65.66;99729.31;126080;1314;114981;-64
2024/04/03 19:04:43;;;;;;;3.50;1.60;;;;;;;12.28;67.12;99730.29;125403;1322;114889;-62
2024/04/03 19:08:39;;;;;;;;;;;;;;;;;;;;;
2024/04/03 19:12:55;;;;;;;;;;;;;;;;;;;;;
2024/04/03 19:17:11;;;;;;;3.60;1.40;;;;;;;12.21;67.73;99723.39;127720;1284;128853;-64
2024/04/03 19:21:24;;;;;;;3.70;1.60;;;;;;;12.19;67.81;99724.80;126471;1296;114866;-63
2024/04/03 19:25:33;;;;;;;4.80;2.70;;;;;;;12.15;68.16;99723.42;122368;1294;5424745;-64
2024/04/03 19:29:34;;;;;;;7.20;2.90;;;;;;;12.12;68.24;99726.30;124717;1326;114934;-63
2024/04/03 19:33:12;;;;;;;7.60;4.20;;;;;;;12.08;68.63;99725.16;124247;1329;114835;-64
2024/04/03 19:41:48;;;;;;;8.20;4.30;;;;;;;12.00;68.73;99729.74;125957;1305;642468;-63
2024/04/03 19:45:51;;;;;;;6.20;3.30;;;;;;;11.94;69.40;99730.30;127184;1298;130285;-64
2024/04/03 19:53:53;;;;;;;3.50;1.80;;;;;;;11.84;69.39;99729.65;121992;1309;5508119;-64
2024/04/03 19:57:55;;;;;;;4.60;1.90;;;;;;;11.79;69.83;99726.77;124960;1307;114861;-64
2024/04/03 20:14:26;;;;;;;8.90;5.10;;;;;;;11.62;70.30;99733.38;126541;1290;114892;-64
2024/04/03 20:18:21;;;;;;;;;;;;;;;;;;;;;
2024/04/03 20:22:24;;;;;;;7.90;4.00;;;;;;;11.56;70.89;99738.21;125811;1312;114994;-63
2024/04/03 20:34:28;;;;;;;6.80;4.20;;;;;;;11.49;71.48;99744.91;124617;1321;114902;-64
2024/04/03 20:43:01;;;;;;;10.30;5.50;;;;;;;11.45;71.85;99742.86;125761;1298;637615;-63
2024/04/03 20:47:04;;;;;;;11.30;5.70;;;;;;;11.38;72.35;99745.58;128535;1276;128311;-62
2024/04/03 20:51:06;;;;;;;8.40;5.30;;;;;;;11.29;72.64;99746.52;127600;1303;115297;-66
2024/04/03 20:55:11;;;;;;;7.80;4.70;;;;;;;11.22;72.64;99744.77;122557;1292;5430238;-64
2024/04/03 20:59:02;;;;;;;4.90;3.00;;;;;;;11.19;72.78;99745.11;125594;1319;114984;-64
2024/04/03 21:03:04;;;;;;;7.50;3.50;;;;;;;11.16;73.18;99746.08;124719;1324;114957;-65
2024/04/03 21:15:46;;;;;;;8.10;4.50;;;;;;;11.08;73.98;99741.01;128098;1296;128910;-65
2024/04/03 21:19:48;;;;;;;8.40;5.00;;;;;;;11.06;74.06;99744.17;127296;1303;115185;-65
2024/04/03 21:23:42;;;;;;;10.30;5.60;;;;;;;11.03;74.56;99750.73;122140;1293;5432323;-65
2024/04/03 21:27:41;;;;;;;;;;;;;;;;;;;;;
2024/04/03 21:31:44;;;;;;;7.30;4.40;;;;;;;10.99;74.80;99755.48;124860;1326;114898;-66
2024/04/03 21:35:17;;;;;;;9.80;5.40;;;;;;;10.95;75.26;99760.36;123362;1322;115684;-65
2024/04/03 21:38:53;;;;;;;9.60;6.20;;;;;;;10.90;75.77;99765.81;123410;1322;128771;-65
2024/04/03 21:42:18;;;;;;;11.40;6.20;;;;;;;10.86;75.80;99769.82;123353;1322;114932;-66
2024/04/03 21:50:11;;;;;;;10.00;5.60;;;;;;;10.84;76.59;99764.05;125843;1300;637601;-64
2024/04/03 21:54:05;;;;;;;;;;;;;;;;;;;;;
2024/04/03 21:58:03;;;;;;;9.70;5.60;;;;;;;10.79;77.27;99762.16;126293;1306;114893;-66
2024/04/03 22:02:10;;;;;;;9.80;7.40;;;;;;;10.78;77.55;99757.79;122990;1303;5405238;-65
2024/04/03 22:05:56;;;;;;;11.80;8.20;;;;;;;10.77;78.06;99755.18;125733;1317;115713;-65
2024/04/03 22:09:39;;;;;;;10.20;7.50;;;;;;;10.78;78.33;99751.14;125766;1302;114955;-65
2024/04/03 22:13:41;;;;;;;8.50;6.10;;;;;;;10.78;78.61;99748.64;125630;1317;114885;-65
2024/04/03 22:17:42;;;;;;;15.90;5.30;;;;;;;10.79;78.86;99746.49;125395;1307;130115;-65
2024/04/03 22:21:43;;;;;;;12.30;7.00;;;;;;;10.79;79.06;99746.47;124899;1313;114914;-65
2024/04/03 22:25:45;;;;;;;10.50;6.50;;;;;;;10.79;79.15;99745.95;124226;1334;114973;-64
2024/04/03 22:29:46;;;;;;;7.90;4.70;;;;;;;10.80;79.36;99750.18;123605;1319;114849;-66
2024/04/03 22:33:47;;;;;;;8.80;6.10;;;;;;;10.79;79.46;99750.39;123617;1332;115051;-66
2024/04/03 22:37:49;;;;;;;9.50;6.10;;;;;;;10.78;79.40;99753.48;124148;1315;129836;-66
2024/04/03 22:41:42;;;;;;;;;;;;;;;;;;;;;
2024/04/03 22:54:23;;;;;;;8.30;5.20;;;;;;;10.78;79.98;99746.52;125523;1313;636236;-66
2024/04/03 22:58:25;;;;;;;8.20;5.10;;;;;;;10.77;80.22;99752.81;127563;1288;128157;-66
2024/04/03 23:02:32;;;;;;;6.10;4.50;;;;;;;10.77;80.31;99745.84;126621;1298;114975;-66
2024/04/03 23:06:36;;;;;;;9.50;5.90;;;;;;;10.77;80.93;99744.64;121222;1303;5660794;-63
2024/04/03 23:15:05;;;;;;;9.10;6.00;;;;;;;10.78;80.38;99735.58;125628;1300;638605;-66
2024/04/03 23:19:09;;;;;;;10.70;6.90;;;;;;;10.79;80.67;99742.56;128024;1297;128769;-65
2024/04/03 23:23:11;;;;;;;11.10;6.90;;;;;;;10.81;81.36;99741.73;127523;1302;114955;-65
2024/04/03 23:31:15;;;;;;;11.90;4.80;;;;;;;10.81;81.29;99740.27;125955;1310;114793;-64
2024/04/03 23:35:17;;;;;;;9.70;6.00;;;;;;;10.80;81.12;99736.44;125201;1322;114839;-65
2024/04/03 23:39:18;;;;;;;8.80;6.50;;;;;;;10.79;81.23;99735.20;124702;1307;128491;-65
2024/04/03 23:43:21;;;;;;;9.20;6.40;;;;;;;10.79;81.17;99734.30;124097;1324;115030;-64
2024/04/03 23:47:13;;;;;;;;;;;;;;;;;;;;;
2024/04/03 23:51:57;;;;;;;;;;;;;;;;;;;;;
2024/04/03 23:55:50;;;;;;;8.70;5.40;;;;;;;10.77;81.38;99729.80;128430;1276;127888;-63
2024/04/03 23:59:52;;;;;;;9.90;7.10;;;;;;;10.74;81.27;99731.05;127094;1303;114913;-63
